Colbert, WA (99005)

12:04 PM PST on February 10, 2016 (GMT -0800)
Cambridge Knoll | | Change Station
CLOSE
Current Station
Personal Weather Station
Location: Colbert, WA
Elevation: 1939 ft
Nearby Weather Stations

Elev 1939 ft 47.81 °N, 117.40 °W | Updated 10 minutes ago

Mostly Cloudy
Mostly Cloudy
42.3 °F
Feels Like 42 °F
N
2.7
Wind Variable Wind from NNE

Today
High -- | Low -- °F
--% Chance of Precip.
Yesterday
High -- | Low -- °F
Precip. -- in
Pressure 30.32 in
Visibility 10.0 miles
Clouds Clear
Windchill 42 °F
Dew Point 35 °F
Humidity 74%
Rainfall 0.00 in
Snow Depth Not available.
7:04 AM 5:03 PM
Waxing Crescent, 7% visible
METAR KDEW 101953Z AUTO 00000KT 10SM CLR 04/01 A3026 RMK AO2 SLP267 T00390006 TSNO
Pressure 30.32 in
Visibility 10.0 miles
Clouds Clear
Windchill 42 °F
Dew Point 35 °F
Humidity 74%
Rainfall 0.00 in
Snow Depth Not available.
7:04 AM 5:03 PM
Waxing Crescent, 7% visible
METAR KDEW 101953Z AUTO 00000KT 10SM CLR 04/01 A3026 RMK AO2 SLP267 T00390006 TSNO

10-Day Weather Forecast

Almanac

Astronomy

Feb. 10, 2016 Rise Set
Actual Time
Civil Twilight
Nautical Twilight
Astronomical Twilight
Moon
Length of Visible Light
Length of Day
Tomorrow will be .
, % of the Moon is Illuminated

Today's Extremes

State Highs State Lows

Community

WunderPhotos

Upload Photos

1,891,929 photos uploaded!

WunderBlog® & News

Nearby

Air Quality

  Air Quality AQ Index Pollutant
Not available.

Snow Depth

Station Depth Elevation

Earthquake Activity

City Distance Mag. Time & Date
Minimum magnitude displayed is 2.5.

Coastal Water Temperatures

Place Temperature

Stations

Nearby Weather Stations

Station Location Temp. Windchill Dew Point Humidity Wind Precip. Elev Updated Type
                   

Watches & Warnings

There are currently no watches in effect.